createdAt,value
2022-12-28T00:01:15.685Z,101438.00
2022-12-28T00:03:42.886Z,101440.00
2022-12-28T00:06:09.877Z,101429.00
2022-12-28T00:08:36.627Z,101442.00
2022-12-28T00:11:13.286Z,101421.00
2022-12-28T00:13:47.416Z,101418.00
2022-12-28T00:16:25.981Z,101410.00
2022-12-28T00:18:53.128Z,101402.00
2022-12-28T00:21:19.789Z,101405.00
2022-12-28T00:23:49.859Z,101395.00
2022-12-28T00:26:16.541Z,101394.00
2022-12-28T00:28:43.509Z,101395.00
2022-12-28T00:31:10.169Z,101404.00
2022-12-28T00:33:36.802Z,101394.00
2022-12-28T00:36:04.148Z,101396.00
2022-12-28T00:38:34.259Z,101374.00
2022-12-28T00:41:00.882Z,101385.00
2022-12-28T00:43:27.781Z,101372.00
2022-12-28T00:45:54.450Z,101374.00
2022-12-28T00:48:21.452Z,101376.00
2022-12-28T00:50:48.147Z,101383.00
2022-12-28T00:53:15.062Z,101366.00
2022-12-28T00:55:42.063Z,101368.00
2022-12-28T00:58:09.431Z,101368.00
2022-12-28T01:00:37.017Z,101364.00
2022-12-28T01:03:04.061Z,101368.00
2022-12-28T01:05:30.684Z,101360.00
2022-12-28T01:07:57.319Z,101349.00
2022-12-28T01:10:24.027Z,101358.00
2022-12-28T01:12:50.608Z,101343.00
2022-12-28T01:15:17.298Z,101337.00
2022-12-28T01:17:43.918Z,101322.00
2022-12-28T01:20:11.273Z,101325.00
2022-12-28T01:22:37.921Z,101324.00
2022-12-28T01:25:04.924Z,101321.00
2022-12-28T01:27:32.609Z,101311.00
2022-12-28T01:29:59.259Z,101322.00
2022-12-28T01:32:25.879Z,101323.00
2022-12-28T01:34:52.492Z,101319.00
2022-12-28T01:37:19.066Z,101317.00
2022-12-28T01:39:45.679Z,101323.00
2022-12-28T01:42:19.861Z,101319.00
2022-12-28T01:44:48.951Z,101316.00
2022-12-28T01:47:29.178Z,101312.00
2022-12-28T01:50:09.268Z,101329.00
2022-12-28T01:52:54.765Z,101323.00
2022-12-28T01:55:31.333Z,101325.00
2022-12-28T01:58:05.645Z,101325.00
2022-12-28T02:00:32.464Z,101335.00
2022-12-28T02:03:00.818Z,101323.00
2022-12-28T02:05:33.769Z,101332.00
2022-12-28T02:08:11.557Z,101325.00
2022-12-28T02:10:42.207Z,101320.00
2022-12-28T02:13:14.262Z,101305.00
2022-12-28T02:15:41.074Z,101297.00
2022-12-28T02:18:08.196Z,101284.00
2022-12-28T02:20:49.379Z,101284.00
2022-12-28T02:23:38.402Z,101296.00
2022-12-28T02:26:13.883Z,101276.00
2022-12-28T02:29:11.379Z,101285.00
2022-12-28T02:31:52.161Z,101267.00
2022-12-28T02:34:32.676Z,101275.00
2022-12-28T02:37:13.425Z,101271.00
2022-12-28T02:40:06.260Z,101266.00
2022-12-28T02:42:36.534Z,101267.00
2022-12-28T02:45:21.485Z,101260.00
2022-12-28T02:48:07.458Z,101243.00
2022-12-28T02:50:50.429Z,101243.00
2022-12-28T02:54:04.891Z,101235.00
2022-12-28T02:56:52.823Z,101233.00
2022-12-28T02:59:47.347Z,101237.00
2022-12-28T03:02:33.935Z,101231.00
2022-12-28T03:05:03.558Z,101223.00
2022-12-28T03:08:08.827Z,101223.00
2022-12-28T03:10:51.677Z,101220.00
2022-12-28T03:14:02.192Z,101216.00
2022-12-28T03:16:54.760Z,101225.00
2022-12-28T03:19:43.154Z,101227.00
2022-12-28T03:22:30.023Z,101214.00
2022-12-28T03:25:18.047Z,101220.00
2022-12-28T03:28:04.429Z,101220.00
2022-12-28T03:30:51.968Z,101229.00
2022-12-28T03:33:18.989Z,101225.00
2022-12-28T03:36:11.147Z,101227.00
2022-12-28T03:39:03.583Z,101218.00
2022-12-28T03:41:47.577Z,101218.00
2022-12-28T03:44:35.049Z,101213.00
2022-12-28T03:47:13.901Z,101206.00
2022-12-28T03:49:41.152Z,101206.00
2022-12-28T03:52:09.675Z,101198.00
2022-12-28T03:54:36.395Z,101201.00
2022-12-28T03:57:03.016Z,101183.00
2022-12-28T03:59:29.619Z,101192.00
2022-12-28T04:01:56.250Z,101186.00
2022-12-28T04:04:23.081Z,101190.00
2022-12-28T04:06:49.664Z,101200.00
2022-12-28T04:09:16.298Z,101194.00
2022-12-28T04:11:42.873Z,101185.00
2022-12-28T04:14:11.210Z,101180.00
2022-12-28T04:16:38.177Z,101184.00
2022-12-28T04:19:04.848Z,101176.00
2022-12-28T04:21:31.456Z,101173.00
2022-12-28T04:23:58.105Z,101170.00
2022-12-28T04:26:24.833Z,101181.00
2022-12-28T04:28:51.452Z,101183.00
2022-12-28T04:31:18.191Z,101176.00
2022-12-28T04:33:44.831Z,101174.00
2022-12-28T04:36:15.374Z,101164.00
2022-12-28T04:38:42.045Z,101175.00
2022-12-28T04:41:10.167Z,101185.00
2022-12-28T04:43:37.106Z,101182.00
2022-12-28T04:46:06.648Z,101179.00
2022-12-28T04:48:34.328Z,101184.00
2022-12-28T04:51:08.001Z,101178.00
2022-12-28T04:53:41.199Z,101188.00
2022-12-28T04:56:08.980Z,101180.00
2022-12-28T04:58:35.940Z,101179.00
2022-12-28T05:01:08.038Z,101178.00
2022-12-28T05:03:35.589Z,101178.00
2022-12-28T05:06:07.862Z,101177.00
2022-12-28T05:08:35.991Z,101166.00
2022-12-28T05:11:04.717Z,101165.00
2022-12-28T05:13:32.076Z,101155.00
2022-12-28T05:16:07.811Z,101150.00
2022-12-28T05:18:34.926Z,101147.00
2022-12-28T05:21:03.230Z,101149.00
2022-12-28T05:23:30.950Z,101151.00
2022-12-28T05:25:57.923Z,101153.00
2022-12-28T05:28:25.577Z,101147.00
2022-12-28T05:30:53.297Z,101150.00
2022-12-28T05:33:19.978Z,101154.00
2022-12-28T05:35:46.587Z,101148.00
2022-12-28T05:38:13.193Z,101154.00
2022-12-28T05:40:39.818Z,101149.00
2022-12-28T05:43:06.393Z,101164.00
2022-12-28T05:45:33.034Z,101147.00
2022-12-28T05:47:59.730Z,101147.00
2022-12-28T05:50:26.277Z,101143.00
2022-12-28T05:52:52.869Z,101151.00
2022-12-28T05:55:19.474Z,101134.00
2022-12-28T05:57:46.080Z,101131.00
2022-12-28T06:00:13.163Z,101143.00
2022-12-28T06:02:39.916Z,101140.00
2022-12-28T06:05:07.340Z,101132.00
2022-12-28T06:07:36.567Z,101138.00
2022-12-28T06:10:03.539Z,101135.00
2022-12-28T06:12:30.182Z,101128.00
2022-12-28T06:14:56.773Z,101122.00
2022-12-28T06:17:23.406Z,101128.00
2022-12-28T06:19:50.099Z,101126.00
2022-12-28T06:22:16.724Z,101128.00
2022-12-28T06:24:43.354Z,101115.00
2022-12-28T06:27:09.997Z,101126.00
2022-12-28T06:29:36.638Z,101116.00
2022-12-28T06:32:03.486Z,101110.00
2022-12-28T06:34:31.327Z,101104.00
2022-12-28T06:36:58.217Z,101110.00
2022-12-28T06:39:25.073Z,101122.00
2022-12-28T06:41:51.749Z,101101.00
2022-12-28T06:44:18.351Z,101094.00
2022-12-28T06:46:44.987Z,101102.00
2022-12-28T06:49:11.583Z,101087.00
2022-12-28T06:51:40.763Z,101096.00
2022-12-28T06:54:09.068Z,101096.00
2022-12-28T06:56:37.445Z,101091.00
2022-12-28T06:59:04.864Z,101084.00
2022-12-28T07:01:35.008Z,101089.00
2022-12-28T07:04:03.637Z,101077.00
2022-12-28T07:06:34.299Z,101081.00
2022-12-28T07:09:03.383Z,101077.00
2022-12-28T07:11:30.768Z,101072.00
2022-12-28T07:13:57.413Z,101076.00
2022-12-28T07:16:25.727Z,101077.00
2022-12-28T07:18:52.532Z,101062.00
2022-12-28T07:21:22.490Z,101074.00
2022-12-28T07:23:55.083Z,101065.00
2022-12-28T07:26:27.115Z,101067.00
2022-12-28T07:28:55.399Z,101066.00
2022-12-28T07:31:25.088Z,101064.00
2022-12-28T07:33:53.408Z,101064.00
2022-12-28T07:36:21.257Z,101060.00
2022-12-28T07:38:48.003Z,101060.00
2022-12-28T07:41:19.317Z,101061.00
2022-12-28T07:43:46.359Z,101055.00
2022-12-28T07:46:19.060Z,101061.00
2022-12-28T07:48:46.915Z,101062.00
2022-12-28T07:51:14.887Z,101048.00
2022-12-28T07:53:43.148Z,101053.00
2022-12-28T07:56:10.395Z,101044.00
2022-12-28T07:58:37.809Z,101032.00
2022-12-28T08:01:05.592Z,101051.00
2022-12-28T08:03:32.963Z,101046.00
2022-12-28T08:06:04.629Z,101050.00
2022-12-28T08:08:31.483Z,101045.00
2022-12-28T08:11:02.475Z,101039.00
2022-12-28T08:13:31.397Z,101041.00
2022-12-28T08:15:58.276Z,101046.00
2022-12-28T08:18:25.119Z,101040.00
2022-12-28T08:20:51.838Z,101039.00
2022-12-28T08:23:18.532Z,101039.00
2022-12-28T08:25:45.266Z,101034.00
2022-12-28T08:28:11.973Z,101036.00
2022-12-28T08:30:39.040Z,101030.00
2022-12-28T08:33:05.679Z,101038.00
2022-12-28T08:35:32.266Z,101030.00
2022-12-28T08:37:58.941Z,101047.00
2022-12-28T08:40:29.898Z,101033.00
2022-12-28T08:42:59.071Z,101034.00
2022-12-28T08:45:26.308Z,101022.00
2022-12-28T08:47:53.488Z,101026.00
2022-12-28T08:50:22.762Z,101023.00
2022-12-28T08:52:51.712Z,101020.00
2022-12-28T08:55:18.344Z,101015.00
2022-12-28T08:57:44.920Z,101030.00
2022-12-28T09:00:12.106Z,101010.00
2022-12-28T09:02:38.854Z,101015.00
2022-12-28T09:05:06.099Z,101017.00
2022-12-28T09:07:32.718Z,101020.00
2022-12-28T09:09:59.480Z,101022.00
2022-12-28T09:12:26.181Z,101023.00
2022-12-28T09:14:52.751Z,101012.00
2022-12-28T09:17:19.366Z,101020.00
2022-12-28T09:19:45.949Z,101016.00
2022-12-28T09:22:12.553Z,101012.00
2022-12-28T09:24:39.187Z,101017.00
2022-12-28T09:27:05.855Z,101009.00
2022-12-28T09:29:32.475Z,101011.00
2022-12-28T09:32:01.481Z,101027.00
2022-12-28T09:34:37.642Z,101019.00
2022-12-28T09:37:06.409Z,101014.00
2022-12-28T09:39:33.211Z,101001.00
2022-12-28T09:42:02.236Z,101021.00
2022-12-28T09:44:46.931Z,101010.00
2022-12-28T09:47:22.570Z,101002.00
2022-12-28T09:49:55.119Z,101014.00
2022-12-28T09:52:30.281Z,101006.00
2022-12-28T09:55:05.455Z,101012.00
2022-12-28T09:57:37.676Z,100999.00
2022-12-28T10:00:07.247Z,101009.00
2022-12-28T10:02:37.169Z,100999.00
2022-12-28T10:05:04.360Z,100998.00
2022-12-28T10:07:31.646Z,100993.00
2022-12-28T10:09:58.826Z,100994.00
2022-12-28T10:12:25.554Z,100990.00
2022-12-28T10:14:53.742Z,100989.00
2022-12-28T10:17:27.026Z,100988.00
2022-12-28T10:19:57.160Z,100978.00
2022-12-28T10:22:26.493Z,100966.00
2022-12-28T10:24:54.165Z,100952.00
2022-12-28T10:27:29.436Z,100959.00
2022-12-28T10:29:59.221Z,100965.00
2022-12-28T10:32:25.883Z,100956.00
2022-12-28T10:34:59.607Z,100956.00
2022-12-28T10:37:30.328Z,100953.00
2022-12-28T10:39:59.951Z,100959.00
2022-12-28T10:42:38.621Z,100946.00
2022-12-28T10:45:16.279Z,100935.00
2022-12-28T10:47:46.191Z,100933.00
2022-12-28T10:50:38.141Z,100929.00
2022-12-28T10:53:05.187Z,100920.00
2022-12-28T10:55:34.019Z,100931.00
2022-12-28T10:58:30.838Z,100916.00
2022-12-28T11:01:20.747Z,100917.00
2022-12-28T11:03:56.448Z,100906.00
2022-12-28T11:06:27.530Z,100907.00
2022-12-28T11:09:12.803Z,100906.00
2022-12-28T11:11:40.175Z,100917.00
2022-12-28T11:14:15.318Z,100905.00
2022-12-28T11:16:42.810Z,100897.00
2022-12-28T11:19:11.036Z,100890.00
2022-12-28T11:21:37.911Z,100890.00
2022-12-28T11:24:05.304Z,100872.00
2022-12-28T11:26:33.943Z,100865.00
2022-12-28T11:29:01.936Z,100860.00
2022-12-28T11:31:35.201Z,100852.00
2022-12-28T11:34:05.367Z,100848.00
2022-12-28T11:36:40.239Z,100838.00
2022-12-28T11:39:25.340Z,100832.00
2022-12-28T11:42:19.524Z,100845.00
2022-12-28T11:44:40.048Z,100830.00
2022-12-28T11:47:15.857Z,100818.00
2022-12-28T11:49:44.144Z,100820.00
2022-12-28T11:52:16.449Z,100811.00
2022-12-28T11:54:57.278Z,100789.00
2022-12-28T11:57:38.755Z,100794.00
2022-12-28T12:00:22.770Z,100786.00
2022-12-28T12:02:56.653Z,100771.00
2022-12-28T12:05:35.479Z,100779.00
2022-12-28T12:08:22.617Z,100762.00
2022-12-28T12:11:09.887Z,100758.00
2022-12-28T12:13:42.851Z,100753.00
2022-12-28T12:16:20.892Z,100747.00
2022-12-28T12:18:52.452Z,100740.00
2022-12-28T12:21:42.700Z,100737.00
2022-12-28T12:24:26.771Z,100725.00
2022-12-28T12:27:07.304Z,100718.00
2022-12-28T12:29:42.353Z,100712.00
2022-12-28T12:32:21.369Z,100706.00
2022-12-28T12:35:04.824Z,100705.00
2022-12-28T12:37:49.807Z,100692.00
2022-12-28T12:40:30.942Z,100686.00
2022-12-28T12:43:10.104Z,100682.00
2022-12-28T12:45:46.365Z,100679.00
2022-12-28T12:48:28.095Z,100674.00
2022-12-28T12:51:15.179Z,100653.00
2022-12-28T12:53:56.831Z,100657.00
2022-12-28T12:56:45.225Z,100659.00
2022-12-28T12:59:15.342Z,100648.00
2022-12-28T13:01:46.904Z,100634.00
2022-12-28T13:04:25.517Z,100628.00
2022-12-28T13:07:04.581Z,100626.00
2022-12-28T13:09:34.698Z,100618.00
2022-12-28T13:12:02.658Z,100620.00
2022-12-28T13:14:29.892Z,100608.00
2022-12-28T13:16:59.440Z,100607.00
2022-12-28T13:19:29.029Z,100583.00
2022-12-28T13:21:57.947Z,100583.00
2022-12-28T13:24:31.545Z,100588.00
2022-12-28T13:27:00.032Z,100581.00
2022-12-28T13:29:31.618Z,100570.00
2022-12-28T13:31:58.280Z,100566.00
2022-12-28T13:34:38.667Z,100556.00
2022-12-28T13:37:15.911Z,100566.00
2022-12-28T13:39:42.795Z,100546.00
2022-12-28T13:42:17.077Z,100551.00
2022-12-28T13:45:03.038Z,100544.00
2022-12-28T13:47:41.983Z,100521.00
2022-12-28T13:50:14.552Z,100523.00
2022-12-28T13:53:04.702Z,100518.00
2022-12-28T13:55:52.852Z,100515.00
2022-12-28T13:58:24.378Z,100499.00
2022-12-28T14:00:53.556Z,100499.00
2022-12-28T14:03:21.849Z,100498.00
2022-12-28T14:05:51.767Z,100484.00
2022-12-28T14:08:18.538Z,100459.00
2022-12-28T14:10:46.887Z,100463.00
2022-12-28T14:13:14.333Z,100456.00
2022-12-28T14:15:41.874Z,100450.00
2022-12-28T14:18:09.939Z,100432.00
2022-12-28T14:20:54.423Z,100427.00
2022-12-28T14:23:25.182Z,100411.00
2022-12-28T14:25:53.934Z,100395.00
2022-12-28T14:28:33.723Z,100400.00
2022-12-28T14:31:01.559Z,100406.00
2022-12-28T14:33:32.230Z,100390.00
2022-12-28T14:36:01.591Z,100390.00
2022-12-28T14:38:51.279Z,100392.00
2022-12-28T14:41:30.613Z,100380.00
2022-12-28T14:44:00.552Z,100363.00
2022-12-28T14:46:38.680Z,100358.00
2022-12-28T14:49:34.251Z,100349.00
2022-12-28T14:52:10.017Z,100358.00
2022-12-28T14:54:47.359Z,100342.00
2022-12-28T14:57:22.622Z,100334.00
2022-12-28T15:00:00.828Z,100342.00
2022-12-28T15:02:33.705Z,100330.00
2022-12-28T15:05:03.925Z,100318.00
2022-12-28T15:07:33.295Z,100307.00
2022-12-28T15:10:00.190Z,100315.00
2022-12-28T15:12:27.045Z,100321.00
2022-12-28T15:14:53.661Z,100311.00
2022-12-28T15:17:20.270Z,100314.00
2022-12-28T15:19:47.058Z,100303.00
2022-12-28T15:22:13.774Z,100312.00
2022-12-28T15:24:45.119Z,100303.00
2022-12-28T15:27:12.133Z,100288.00
2022-12-28T15:30:04.360Z,100295.00
2022-12-28T15:32:25.408Z,100293.00
2022-12-28T15:34:52.021Z,100293.00
2022-12-28T15:37:18.628Z,100279.00
2022-12-28T15:39:45.277Z,100279.00
2022-12-28T15:42:11.847Z,100266.00
2022-12-28T15:44:38.498Z,100257.00
2022-12-28T15:47:05.261Z,100259.00
2022-12-28T15:49:32.683Z,100253.00
2022-12-28T15:51:59.825Z,100245.00
2022-12-28T15:54:26.426Z,100248.00
2022-12-28T15:56:54.754Z,100243.00
2022-12-28T15:59:21.768Z,100247.00
2022-12-28T16:01:48.732Z,100226.00
2022-12-28T16:04:15.663Z,100233.00
2022-12-28T16:06:44.912Z,100227.00
2022-12-28T16:09:12.897Z,100221.00
2022-12-28T16:11:40.082Z,100223.00
2022-12-28T16:14:08.846Z,100220.00
2022-12-28T16:16:38.483Z,100221.00
2022-12-28T16:19:07.027Z,100229.00
2022-12-28T16:21:33.932Z,100213.00
2022-12-28T16:24:01.107Z,100209.00
2022-12-28T16:26:28.469Z,100218.00
2022-12-28T16:28:55.316Z,100204.00
2022-12-28T16:31:26.085Z,100215.00
2022-12-28T16:33:57.930Z,100197.00
2022-12-28T16:36:25.348Z,100210.00
2022-12-28T16:38:52.584Z,100201.00
2022-12-28T16:41:19.764Z,100210.00
2022-12-28T16:43:47.401Z,100193.00
2022-12-28T16:46:14.184Z,100177.00
2022-12-28T16:48:41.207Z,100186.00
2022-12-28T16:51:08.146Z,100197.00
2022-12-28T16:53:37.063Z,100169.00
2022-12-28T16:56:05.589Z,100181.00
2022-12-28T16:58:32.711Z,100173.00
2022-12-28T17:01:08.761Z,100180.00
2022-12-28T17:03:37.271Z,100171.00
2022-12-28T17:06:04.260Z,100166.00
2022-12-28T17:08:31.108Z,100175.00
2022-12-28T17:10:57.713Z,100154.00
2022-12-28T17:13:24.328Z,100173.00
2022-12-28T17:15:50.978Z,100152.00
2022-12-28T17:18:17.631Z,100160.00
2022-12-28T17:20:45.330Z,100163.00
2022-12-28T17:23:13.236Z,100158.00
2022-12-28T17:25:40.039Z,100144.00
2022-12-28T17:28:06.799Z,100156.00
2022-12-28T17:30:33.954Z,100154.00
2022-12-28T17:33:00.808Z,100153.00
2022-12-28T17:35:27.457Z,100152.00
2022-12-28T17:37:54.052Z,100141.00
2022-12-28T17:40:20.880Z,100127.00
2022-12-28T17:42:47.767Z,100137.00
2022-12-28T17:45:14.468Z,100132.00
2022-12-28T17:47:41.259Z,100121.00
2022-12-28T17:50:18.139Z,100125.00
2022-12-28T17:52:44.759Z,100111.00
2022-12-28T17:55:11.628Z,100117.00
2022-12-28T17:57:38.881Z,100122.00
2022-12-28T18:00:06.697Z,100129.00
2022-12-28T18:02:33.644Z,100117.00
2022-12-28T18:05:00.445Z,100111.00
2022-12-28T18:07:27.623Z,100110.00
2022-12-28T18:09:54.330Z,100114.00
2022-12-28T18:12:20.935Z,100107.00
2022-12-28T18:14:47.550Z,100097.00
2022-12-28T18:17:16.704Z,100104.00
2022-12-28T18:19:43.653Z,100122.00
2022-12-28T18:22:10.292Z,100106.00
2022-12-28T18:24:36.949Z,100112.00
2022-12-28T18:27:03.641Z,100107.00
2022-12-28T18:29:30.304Z,100112.00
2022-12-28T18:31:56.922Z,100121.00
2022-12-28T18:34:23.544Z,100120.00
2022-12-28T18:36:50.226Z,100116.00
2022-12-28T18:39:16.912Z,100114.00
2022-12-28T18:41:43.610Z,100110.00
2022-12-28T18:44:10.418Z,100104.00
2022-12-28T18:46:37.240Z,100107.00
2022-12-28T18:49:03.942Z,100094.00
2022-12-28T18:51:30.572Z,100088.00
2022-12-28T18:53:57.209Z,100082.00
2022-12-28T18:56:23.839Z,100085.00
2022-12-28T18:58:52.926Z,100085.00
2022-12-28T19:04:12.460Z,100087.00
2022-12-28T19:06:39.725Z,100093.00
2022-12-28T19:09:07.651Z,100079.00
2022-12-28T19:11:35.580Z,100073.00
2022-12-28T19:14:03.923Z,100074.00
2022-12-28T19:16:32.199Z,100058.00
2022-12-28T19:19:00.229Z,100062.00
2022-12-28T19:21:36.726Z,100058.00
2022-12-28T19:24:12.779Z,100065.00
2022-12-28T19:26:39.474Z,100074.00
2022-12-28T19:29:06.543Z,100066.00
2022-12-28T19:31:34.609Z,100066.00
2022-12-28T19:34:01.280Z,100068.00
2022-12-28T19:36:27.857Z,100066.00
2022-12-28T19:38:55.445Z,100076.00
2022-12-28T19:41:22.413Z,100054.00
2022-12-28T19:43:49.106Z,100063.00
2022-12-28T19:46:18.122Z,100066.00
2022-12-28T19:48:45.164Z,100078.00
2022-12-28T19:51:12.798Z,100065.00
2022-12-28T19:53:39.387Z,100073.00
2022-12-28T19:56:07.432Z,100069.00
2022-12-28T19:58:35.774Z,100076.00
2022-12-28T20:01:13.766Z,100064.00
2022-12-28T20:03:40.979Z,100062.00
2022-12-28T20:06:16.752Z,100080.00
2022-12-28T20:08:47.625Z,100062.00
2022-12-28T20:11:14.558Z,100061.00
2022-12-28T20:13:41.923Z,100062.00
2022-12-28T20:16:09.608Z,100075.00
2022-12-28T20:18:36.400Z,100059.00
2022-12-28T20:21:21.633Z,100052.00
2022-12-28T20:23:49.976Z,100063.00
2022-12-28T20:26:17.823Z,100062.00
2022-12-28T20:28:45.153Z,100042.00
2022-12-28T20:31:14.322Z,100053.00
2022-12-28T20:33:42.269Z,100054.00
2022-12-28T20:36:13.041Z,100054.00
2022-12-28T20:38:40.130Z,100043.00
2022-12-28T20:41:34.051Z,100044.00
2022-12-28T20:44:02.619Z,100035.00
2022-12-28T20:46:29.739Z,100037.00
2022-12-28T20:48:56.763Z,100031.00
2022-12-28T20:51:23.378Z,100040.00
2022-12-28T20:53:50.056Z,100030.00
2022-12-28T20:56:17.188Z,100031.00
2022-12-28T20:58:44.039Z,100027.00
2022-12-28T21:01:13.616Z,100023.00
2022-12-28T21:03:40.700Z,100013.00
2022-12-28T21:06:08.390Z,100018.00
2022-12-28T21:08:35.336Z,100012.00
2022-12-28T21:11:02.647Z,100002.00
2022-12-28T21:13:29.753Z,100005.00
2022-12-28T21:15:56.785Z,100001.00
2022-12-28T21:18:23.831Z,100006.00
2022-12-28T21:20:53.739Z,99995.00
2022-12-28T21:23:20.392Z,100007.00
2022-12-28T21:25:47.304Z,99995.00
2022-12-28T21:28:13.914Z,99992.00
2022-12-28T21:30:40.550Z,99989.00
2022-12-28T21:33:07.335Z,99986.00
2022-12-28T21:35:34.852Z,99985.00
2022-12-28T21:38:01.873Z,99980.00
2022-12-28T21:40:28.752Z,99998.00
2022-12-28T21:42:55.530Z,99980.00
2022-12-28T21:45:22.172Z,99997.00
2022-12-28T21:47:48.785Z,99993.00
2022-12-28T21:50:15.573Z,99989.00
2022-12-28T21:52:42.241Z,99986.00
2022-12-28T21:55:47.718Z,99982.00
2022-12-28T21:58:14.392Z,99988.00
2022-12-28T22:01:00.007Z,99976.00
2022-12-28T22:03:56.124Z,99972.00
2022-12-28T22:06:22.763Z,99976.00
2022-12-28T22:09:07.898Z,99980.00
2022-12-28T22:11:52.825Z,99973.00
2022-12-28T22:14:19.371Z,99976.00
2022-12-28T22:16:46.008Z,99968.00
2022-12-28T22:19:12.633Z,99968.00
2022-12-28T22:21:39.238Z,99971.00
2022-12-28T22:24:06.023Z,99965.00
2022-12-28T22:26:32.697Z,99942.00
2022-12-28T22:28:59.284Z,99949.00
2022-12-28T22:31:25.959Z,99957.00
2022-12-28T22:33:55.191Z,99947.00
2022-12-28T22:36:21.815Z,99950.00
2022-12-28T22:38:48.505Z,99938.00
2022-12-28T22:41:15.089Z,99931.00
2022-12-28T22:43:41.806Z,99938.00
2022-12-28T22:46:11.044Z,99921.00
2022-12-28T22:48:38.313Z,99923.00
2022-12-28T22:51:11.137Z,99932.00
2022-12-28T22:53:37.949Z,99918.00
2022-12-28T22:56:08.416Z,99915.00
2022-12-28T22:58:35.551Z,99909.00
2022-12-28T23:01:14.321Z,99908.00
2022-12-28T23:03:42.700Z,99910.00
2022-12-28T23:06:11.270Z,99906.00
2022-12-28T23:08:37.920Z,99901.00
2022-12-28T23:11:29.715Z,99907.00
2022-12-28T23:14:17.617Z,99896.00
2022-12-28T23:16:44.765Z,99898.00
2022-12-28T23:19:30.090Z,99885.00
2022-12-28T23:22:15.458Z,99887.00
2022-12-28T23:25:00.498Z,99889.00
2022-12-28T23:27:42.810Z,99882.00
2022-12-28T23:30:12.459Z,99889.00
2022-12-28T23:32:39.427Z,99885.00
2022-12-28T23:35:06.754Z,99877.00
2022-12-28T23:37:33.389Z,99872.00
2022-12-28T23:40:00.034Z,99885.00
2022-12-28T23:42:27.021Z,99885.00
2022-12-28T23:44:53.628Z,99884.00
2022-12-28T23:47:20.678Z,99876.00
2022-12-28T23:49:47.287Z,99871.00
2022-12-28T23:52:14.051Z,99863.00
2022-12-28T23:54:40.621Z,99861.00
2022-12-28T23:57:07.246Z,99865.00
2022-12-28T23:59:33.867Z,99854.00
